createdAt,value
2023-04-12T00:03:03.551Z,7.00
2023-04-12T00:06:12.568Z,4.30
2023-04-12T00:09:20.371Z,7.60
2023-04-12T00:12:28.122Z,6.10
2023-04-12T00:15:37.109Z,8.20
2023-04-12T00:18:47.192Z,6.70
2023-04-12T00:21:55.118Z,6.90
2023-04-12T00:25:02.587Z,11.00
2023-04-12T00:28:11.205Z,7.00
2023-04-12T00:31:18.875Z,7.20
2023-04-12T00:34:26.504Z,5.70
2023-04-12T00:37:35.588Z,4.90
2023-04-12T00:40:42.591Z,6.50
2023-04-12T00:43:50.287Z,8.70
2023-04-12T00:46:59.342Z,8.70
2023-04-12T00:50:06.798Z,5.40
2023-04-12T00:53:14.600Z,7.80
2023-04-12T00:56:23.117Z,8.50
2023-04-12T00:59:31.094Z,8.70
2023-04-12T01:02:39.454Z,7.50
2023-04-12T01:05:47.982Z,7.60
2023-04-12T01:08:55.653Z,4.20
2023-04-12T01:12:03.402Z,6.00
2023-04-12T01:15:10.719Z,9.60
2023-04-12T01:18:20.195Z,5.00
2023-04-12T01:21:28.046Z,6.40
2023-04-12T01:24:35.346Z,2.80
2023-04-12T01:27:44.316Z,4.60
2023-04-12T01:30:51.495Z,6.00
2023-04-12T01:33:59.580Z,3.50
2023-04-12T01:37:08.348Z,9.60
2023-04-12T01:40:15.661Z,9.70
2023-04-12T01:43:23.240Z,4.60
2023-04-12T01:46:31.926Z,5.00
2023-04-12T01:49:39.176Z,5.20
2023-04-12T01:52:47.137Z,4.70
2023-04-12T01:55:54.864Z,6.40
2023-04-12T01:59:03.756Z,5.80
2023-04-12T02:02:11.527Z,6.10
2023-04-12T02:05:18.507Z,5.50
2023-04-12T02:08:27.406Z,4.30
2023-04-12T02:11:34.702Z,4.30
2023-04-12T02:14:42.106Z,4.60
2023-04-12T02:17:50.858Z,4.30
2023-04-12T02:20:57.892Z,3.80
2023-04-12T02:24:05.779Z,6.30
2023-04-12T02:27:14.542Z,7.50
2023-04-12T02:30:22.000Z,5.70
2023-04-12T02:33:29.947Z,5.40
2023-04-12T02:36:36.837Z,5.70
2023-04-12T02:39:45.942Z,7.20
2023-04-12T02:42:53.570Z,3.30
2023-04-12T02:46:00.710Z,8.10
2023-04-12T02:49:09.792Z,5.90
2023-04-12T02:52:17.429Z,7.20
2023-04-12T02:55:24.816Z,3.60
2023-04-12T02:58:33.777Z,5.40
2023-04-12T03:01:41.200Z,6.90
2023-04-12T03:04:48.436Z,4.50
2023-04-12T03:07:57.377Z,5.90
2023-04-12T03:11:04.622Z,5.30
2023-04-12T03:14:11.933Z,6.30
2023-04-12T03:17:19.191Z,6.20
2023-04-12T03:20:28.136Z,4.50
2023-04-12T03:23:35.636Z,6.60
2023-04-12T03:26:42.929Z,5.40
2023-04-12T03:29:52.006Z,5.80
2023-04-12T03:32:59.236Z,5.90
2023-04-12T03:36:06.849Z,3.70
2023-04-12T03:39:16.141Z,3.80
2023-04-12T03:42:33.241Z,5.60
2023-04-12T03:45:28.081Z,5.30
2023-04-12T03:48:36.897Z,3.80
2023-04-12T03:51:44.272Z,6.10
2023-04-12T03:54:52.011Z,5.80
2023-04-12T03:58:00.878Z,3.90
2023-04-12T04:01:08.149Z,6.70
2023-04-12T04:04:16.073Z,6.20
2023-04-12T04:07:23.515Z,5.50
2023-04-12T04:10:32.209Z,5.60
2023-04-12T04:13:39.764Z,4.70
2023-04-12T04:16:47.378Z,5.40
2023-04-12T04:19:56.362Z,6.50
2023-04-12T04:23:04.086Z,3.70
2023-04-12T04:26:11.906Z,7.50
2023-04-12T04:29:20.588Z,3.00
2023-04-12T04:32:27.649Z,6.30
2023-04-12T04:35:35.237Z,6.90
2023-04-12T04:38:43.907Z,3.40
2023-04-12T04:41:51.254Z,4.30
2023-04-12T04:44:59.303Z,4.70
2023-04-12T04:48:07.121Z,5.10
2023-04-12T04:51:15.716Z,6.10
2023-04-12T04:54:23.800Z,6.00
2023-04-12T04:57:30.643Z,3.90
2023-04-12T05:00:39.598Z,7.30
2023-04-12T05:03:47.269Z,5.90
2023-04-12T05:06:54.575Z,6.80
2023-04-12T05:10:04.083Z,8.40
2023-04-12T05:13:11.641Z,4.10
2023-04-12T05:16:18.701Z,5.70
2023-04-12T05:19:27.934Z,4.50
2023-04-12T05:22:35.075Z,5.10
2023-04-12T05:25:44.012Z,5.30
2023-04-12T05:28:52.040Z,4.50
2023-04-12T05:32:00.751Z,4.10
2023-04-12T05:35:08.250Z,4.90
2023-04-12T05:38:16.371Z,9.60
2023-04-12T05:41:25.212Z,5.60
2023-04-12T05:44:32.667Z,6.40
2023-04-12T05:47:40.221Z,8.00
2023-04-12T05:50:49.227Z,7.20
2023-04-12T05:53:56.785Z,9.10
2023-04-12T05:57:04.083Z,6.90
2023-04-12T06:00:13.175Z,5.50
2023-04-12T06:03:20.730Z,5.70
2023-04-12T06:06:28.202Z,8.40
2023-04-12T06:09:37.805Z,6.00
2023-04-12T06:12:45.368Z,5.30
2023-04-12T06:15:53.141Z,4.10
2023-04-12T06:19:01.283Z,4.90
2023-04-12T06:22:09.908Z,5.10
2023-04-12T06:25:17.839Z,5.30
2023-04-12T06:28:25.937Z,6.60
2023-04-12T06:31:34.371Z,3.90
2023-04-12T06:34:41.986Z,6.50
2023-04-12T06:37:50.028Z,5.00
2023-04-12T06:40:58.824Z,4.10
2023-04-12T06:44:06.609Z,3.80
2023-04-12T06:47:14.571Z,7.70
2023-04-12T06:50:23.266Z,5.60
2023-04-12T06:53:31.110Z,3.30
2023-04-12T06:56:38.400Z,5.70
2023-04-12T06:59:45.659Z,5.90
2023-04-12T07:02:55.435Z,5.30
2023-04-12T07:06:10.605Z,5.70
2023-04-12T07:09:07.374Z,7.70
2023-04-12T07:12:16.149Z,4.50
2023-04-12T07:15:23.554Z,4.20
2023-04-12T07:18:31.133Z,5.90
2023-04-12T07:21:39.607Z,4.70
2023-04-12T07:24:47.101Z,6.00
2023-04-12T07:27:54.831Z,3.80
2023-04-12T07:31:03.329Z,7.90
2023-04-12T07:34:11.441Z,5.70
2023-04-12T07:37:19.080Z,6.20
2023-04-12T07:40:26.131Z,5.20
2023-04-12T07:43:35.514Z,5.70
2023-04-12T07:46:43.350Z,7.20
2023-04-12T07:49:50.415Z,5.00
2023-04-12T07:52:59.587Z,6.40
2023-04-12T07:56:07.178Z,6.00
2023-04-12T07:59:14.126Z,5.00
2023-04-12T08:02:23.482Z,5.00
2023-04-12T08:05:31.228Z,4.70
2023-04-12T08:08:38.571Z,5.20
2023-04-12T08:11:47.842Z,5.80
2023-04-12T08:14:55.301Z,5.90
2023-04-12T08:18:02.901Z,4.60
2023-04-12T08:21:12.017Z,5.10
2023-04-12T08:24:19.231Z,5.90
2023-04-12T08:27:26.612Z,6.80
2023-04-12T08:30:34.425Z,5.30
2023-04-12T08:33:43.311Z,9.20
2023-04-12T08:36:50.612Z,7.40
2023-04-12T08:39:58.007Z,7.90
2023-04-12T08:43:07.042Z,5.20
2023-04-12T08:46:14.420Z,5.50
2023-04-12T08:49:22.068Z,6.50
2023-04-12T08:52:31.327Z,3.80
2023-04-12T08:55:38.670Z,5.50
2023-04-12T08:58:45.751Z,5.40
2023-04-12T09:01:55.087Z,5.90
2023-04-12T09:05:02.427Z,6.70
2023-04-12T09:08:09.438Z,5.50
2023-04-12T09:11:17.077Z,2.60
2023-04-12T09:14:25.389Z,4.10
2023-04-12T09:17:33.126Z,2.60
2023-04-12T09:20:40.373Z,3.90
2023-04-12T09:23:48.725Z,1.90
2023-04-12T09:26:56.316Z,6.40
2023-04-12T09:30:03.666Z,4.50
2023-04-12T09:33:12.764Z,4.40
2023-04-12T09:36:20.336Z,4.90
2023-04-12T09:39:27.526Z,3.80
2023-04-12T09:42:36.562Z,4.20
2023-04-12T09:45:43.639Z,4.30
2023-04-12T09:48:51.573Z,5.30
2023-04-12T09:51:59.723Z,4.70
2023-04-12T09:55:08.609Z,3.70
2023-04-12T09:58:16.154Z,7.00
2023-04-12T10:01:23.890Z,7.40
2023-04-12T10:04:32.456Z,5.10
2023-04-12T10:07:40.039Z,5.10
2023-04-12T10:10:47.845Z,4.60
2023-04-12T10:13:56.476Z,8.40
2023-04-12T10:17:04.478Z,6.60
2023-04-12T10:20:11.558Z,5.90
2023-04-12T10:23:20.679Z,4.00
2023-04-12T10:26:28.532Z,4.50
2023-04-12T10:29:35.945Z,5.20
2023-04-12T10:32:43.564Z,4.50
2023-04-12T10:35:52.827Z,5.70
2023-04-12T10:39:00.315Z,5.20
2023-04-12T10:42:07.660Z,4.90
2023-04-12T10:45:16.460Z,4.50
2023-04-12T10:48:24.265Z,7.10
2023-04-12T10:51:32.271Z,5.10
2023-04-12T10:54:40.678Z,6.20
2023-04-12T10:57:48.303Z,5.80
2023-04-12T11:00:56.029Z,5.40
2023-04-12T11:04:05.329Z,6.10
2023-04-12T11:07:13.864Z,2.70
2023-04-12T11:10:21.686Z,4.60
2023-04-12T11:13:30.427Z,4.70
2023-04-12T11:16:37.720Z,4.70
2023-04-12T11:19:45.529Z,5.20
2023-04-12T11:22:52.807Z,6.20
2023-04-12T11:26:01.624Z,4.80
2023-04-12T11:29:08.989Z,3.70
2023-04-12T11:32:16.237Z,3.20
2023-04-12T11:35:25.612Z,3.60
2023-04-12T11:38:33.561Z,5.60
2023-04-12T11:41:40.710Z,3.20
2023-04-12T11:44:56.483Z,3.50
2023-04-12T11:47:54.913Z,2.60
2023-04-12T11:51:11.120Z,2.80
2023-04-12T11:54:08.080Z,5.80
2023-04-12T11:57:15.683Z,2.70
2023-04-12T12:00:23.254Z,3.70
2023-04-12T12:03:31.125Z,3.80
2023-04-12T12:06:40.429Z,2.80
2023-04-12T12:09:48.339Z,3.20
2023-04-12T12:12:57.021Z,5.90
2023-04-12T12:16:06.125Z,8.20
2023-04-12T12:19:13.718Z,6.30
2023-04-12T12:22:21.324Z,6.30
2023-04-12T12:25:30.471Z,3.60
2023-04-12T12:28:38.463Z,3.50
2023-04-12T12:31:45.923Z,3.70
2023-04-12T12:34:55.360Z,4.80
2023-04-12T12:38:02.495Z,3.20
2023-04-12T12:41:10.204Z,2.10
2023-04-12T12:44:17.978Z,3.10
2023-04-12T12:47:26.569Z,3.70
2023-04-12T12:50:34.568Z,3.80
2023-04-12T12:53:42.363Z,6.10
2023-04-12T12:56:50.796Z,5.80
2023-04-12T12:59:58.698Z,3.90
2023-04-12T13:03:06.526Z,3.70
2023-04-12T13:06:15.517Z,4.20
2023-04-12T13:09:23.097Z,3.70
2023-04-12T13:12:30.556Z,2.20
2023-04-12T13:15:39.340Z,2.70
2023-04-12T13:18:46.314Z,3.00
2023-04-12T13:21:53.978Z,2.30
2023-04-12T13:25:01.416Z,3.50
2023-04-12T13:28:09.936Z,3.10
2023-04-12T13:31:18.086Z,2.10
2023-04-12T13:34:25.424Z,2.00
2023-04-12T13:37:33.914Z,2.60
2023-04-12T13:40:41.656Z,1.20
2023-04-12T13:43:48.844Z,2.50
2023-04-12T13:46:58.059Z,2.90
2023-04-12T13:50:06.028Z,2.40
2023-04-12T13:53:13.099Z,1.50
2023-04-12T13:56:22.253Z,2.00
2023-04-12T13:59:30.156Z,2.00
2023-04-12T14:02:37.348Z,1.30
2023-04-12T14:05:46.675Z,2.00
2023-04-12T14:08:54.384Z,1.40
2023-04-12T14:12:01.647Z,2.10
2023-04-12T14:15:09.383Z,2.70
2023-04-12T14:18:18.166Z,1.80
2023-04-12T14:21:25.551Z,2.20
2023-04-12T14:24:33.037Z,2.20
2023-04-12T14:27:41.749Z,1.50
2023-04-12T14:30:49.347Z,1.20
2023-04-12T14:33:57.385Z,2.40
2023-04-12T14:37:06.566Z,2.20
2023-04-12T14:40:14.033Z,2.10
2023-04-12T14:43:21.334Z,1.60
2023-04-12T14:46:30.576Z,2.20
2023-04-12T14:49:37.889Z,1.80
2023-04-12T14:52:45.268Z,1.80
2023-04-12T14:55:53.306Z,3.00
2023-04-12T14:59:02.173Z,2.50
2023-04-12T15:02:09.660Z,3.10
2023-04-12T15:05:17.351Z,3.80
2023-04-12T15:08:25.967Z,3.50
2023-04-12T15:11:33.377Z,3.20
2023-04-12T15:14:41.157Z,2.60
2023-04-12T15:17:49.559Z,3.20
2023-04-12T15:20:57.253Z,3.00
2023-04-12T15:24:04.915Z,3.20
2023-04-12T15:27:13.817Z,2.70
2023-04-12T15:30:21.106Z,1.60
2023-04-12T15:33:28.766Z,2.10
2023-04-12T15:36:35.850Z,2.00
2023-04-12T15:39:45.416Z,2.40
2023-04-12T15:42:52.821Z,4.50
2023-04-12T15:46:00.250Z,3.00
2023-04-12T15:49:09.245Z,3.00
2023-04-12T15:52:16.760Z,4.50
2023-04-12T15:55:24.041Z,3.00
2023-04-12T15:58:33.188Z,4.70
2023-04-12T16:01:40.618Z,2.80
2023-04-12T16:04:48.166Z,3.00
2023-04-12T16:07:57.049Z,2.30
2023-04-12T16:11:04.406Z,3.30
2023-04-12T16:14:12.258Z,2.70
2023-04-12T16:17:19.745Z,4.50
2023-04-12T16:20:28.669Z,3.60
2023-04-12T16:23:36.089Z,4.40
2023-04-12T16:26:43.226Z,2.30
2023-04-12T16:29:52.242Z,2.10
2023-04-12T16:33:00.434Z,2.00
2023-04-12T16:36:07.491Z,3.80
2023-04-12T16:39:16.728Z,3.40
2023-04-12T16:42:24.356Z,3.60
2023-04-12T16:45:32.023Z,2.80
2023-04-12T16:48:41.385Z,2.90
2023-04-12T16:51:48.566Z,2.50
2023-04-12T16:54:56.783Z,3.50
2023-04-12T16:58:06.206Z,2.50
2023-04-12T17:04:21.219Z,2.90
2023-04-12T17:07:28.821Z,2.30
2023-04-12T17:10:37.849Z,4.20
2023-04-12T17:13:45.232Z,2.40
2023-04-12T17:16:52.959Z,3.00
2023-04-12T17:20:02.380Z,3.20
2023-04-12T17:23:10.330Z,2.90
2023-04-12T17:26:18.344Z,3.10
2023-04-12T17:29:27.923Z,4.00
2023-04-12T17:32:35.342Z,4.40
2023-04-12T17:35:43.132Z,5.20
2023-04-12T17:38:52.438Z,3.60
2023-04-12T17:41:59.510Z,4.60
2023-04-12T17:45:06.934Z,4.00
2023-04-12T17:48:14.761Z,5.40
2023-04-12T17:51:23.450Z,5.60
2023-04-12T17:54:31.085Z,6.20
2023-04-12T17:57:38.676Z,4.10
2023-04-12T18:00:47.699Z,8.20
2023-04-12T18:03:55.851Z,5.60
2023-04-12T18:07:03.923Z,6.20
2023-04-12T18:10:12.847Z,7.30
2023-04-12T18:13:20.824Z,7.70
2023-04-12T18:16:28.987Z,9.00
2023-04-12T18:19:39.937Z,9.00
2023-04-12T18:22:47.936Z,6.80
2023-04-12T18:25:55.545Z,8.00
2023-04-12T18:29:02.925Z,9.00
2023-04-12T18:32:11.682Z,8.10
2023-04-12T18:35:19.553Z,11.60
2023-04-12T18:38:26.588Z,13.30
2023-04-12T18:41:35.582Z,13.80
2023-04-12T18:44:43.402Z,15.00
2023-04-12T18:47:51.354Z,12.00
2023-04-12T18:51:00.302Z,12.10
2023-04-12T18:54:08.105Z,16.00
2023-04-12T18:57:15.961Z,16.60
2023-04-12T19:00:24.795Z,16.00
2023-04-12T19:03:32.653Z,16.20
2023-04-12T19:06:40.404Z,19.80
2023-04-12T19:09:49.357Z,22.30
2023-04-12T19:12:57.146Z,24.70
2023-04-12T19:16:05.093Z,24.60
2023-04-12T19:19:12.773Z,27.30
2023-04-12T19:22:22.299Z,27.90
2023-04-12T19:25:29.909Z,26.80
2023-04-12T19:28:37.353Z,27.00
2023-04-12T19:31:46.653Z,31.20
2023-04-12T19:34:54.003Z,37.50
2023-04-12T19:38:01.590Z,28.50
2023-04-12T19:41:10.486Z,15.10
2023-04-12T19:44:18.028Z,13.70
2023-04-12T19:47:25.312Z,10.00
2023-04-12T19:50:34.584Z,11.00
2023-04-12T19:53:42.415Z,11.30
2023-04-12T19:56:49.848Z,8.70
2023-04-12T19:59:57.371Z,10.60
2023-04-12T20:03:07.097Z,8.10
2023-04-12T20:06:14.534Z,12.90
2023-04-12T20:09:21.657Z,9.50
2023-04-12T20:12:30.510Z,10.60
2023-04-12T20:15:37.404Z,13.00
2023-04-12T20:18:44.863Z,11.40
2023-04-12T20:21:53.785Z,9.00
2023-04-12T20:25:00.710Z,7.10
2023-04-12T20:28:08.165Z,10.60
2023-04-12T20:31:17.248Z,10.70
2023-04-12T20:34:24.040Z,14.30
2023-04-12T20:37:31.360Z,14.60
2023-04-12T20:40:38.868Z,15.80
2023-04-12T20:43:47.222Z,11.30
2023-04-12T20:46:55.028Z,12.40
2023-04-12T20:50:02.974Z,15.50
2023-04-12T20:53:11.142Z,13.60
2023-04-12T20:56:18.882Z,14.70
2023-04-12T20:59:25.969Z,12.60
2023-04-12T21:02:34.673Z,9.90
2023-04-12T21:05:42.079Z,12.80
2023-04-12T21:08:49.262Z,13.90
2023-04-12T21:11:58.142Z,12.20
2023-04-12T21:15:04.911Z,21.60
2023-04-12T21:18:12.444Z,15.10
2023-04-12T21:21:20.197Z,14.40
2023-04-12T21:24:28.425Z,13.80
2023-04-12T21:27:36.051Z,12.90
2023-04-12T21:30:43.571Z,17.60
2023-04-12T21:33:51.859Z,14.90
2023-04-12T21:36:59.582Z,16.60
2023-04-12T21:40:06.749Z,13.10
2023-04-12T21:43:15.309Z,10.40
2023-04-12T21:46:22.865Z,13.00
2023-04-12T21:49:30.037Z,16.00
2023-04-12T21:52:38.710Z,14.80
2023-04-12T21:55:46.073Z,14.40
2023-04-12T21:58:53.141Z,14.30
2023-04-12T22:02:01.911Z,15.90
2023-04-12T22:05:09.256Z,18.00
2023-04-12T22:08:16.955Z,16.40
2023-04-12T22:11:24.131Z,15.90
2023-04-12T22:14:32.558Z,18.90
2023-04-12T22:17:40.123Z,22.10
2023-04-12T22:20:47.297Z,20.00
2023-04-12T22:23:56.056Z,21.30
2023-04-12T22:27:03.535Z,19.00
2023-04-12T22:30:10.763Z,15.70
2023-04-12T22:33:19.361Z,19.20
2023-04-12T22:36:29.342Z,25.50
2023-04-12T22:39:36.376Z,23.70
2023-04-12T22:42:44.917Z,22.80
2023-04-12T22:45:52.654Z,27.00
2023-04-12T22:48:59.506Z,24.40
2023-04-12T22:52:06.641Z,23.90
2023-04-12T22:55:15.663Z,26.30
2023-04-12T22:58:22.891Z,22.00
2023-04-12T23:01:30.285Z,24.90
2023-04-12T23:04:38.822Z,22.00
2023-04-12T23:07:46.263Z,27.00
2023-04-12T23:10:53.450Z,24.40
2023-04-12T23:14:01.973Z,21.40
2023-04-12T23:17:09.949Z,26.10
2023-04-12T23:20:17.129Z,24.20
2023-04-12T23:23:25.738Z,24.00
2023-04-12T23:26:32.965Z,25.60
2023-04-12T23:29:39.996Z,22.00
2023-04-12T23:32:47.901Z,22.10
2023-04-12T23:35:56.228Z,23.90
2023-04-12T23:39:03.560Z,27.30
2023-04-12T23:42:11.035Z,28.90
2023-04-12T23:45:19.797Z,24.10
2023-04-12T23:48:27.014Z,28.10
2023-04-12T23:51:34.573Z,28.30
2023-04-12T23:54:43.180Z,33.00
2023-04-12T23:57:50.363Z,29.10
